createdAt,value
2017-02-26T00:00:53.393Z,5.08
2017-02-26T00:02:03.677Z,5.08
2017-02-26T00:03:13.548Z,5.03
2017-02-26T00:04:24.104Z,5.03
2017-02-26T00:05:33.644Z,5.04
2017-02-26T00:06:43.959Z,5
2017-02-26T00:07:54.252Z,5.04
2017-02-26T00:09:04.228Z,5.03
2017-02-26T00:10:14.362Z,5.04
2017-02-26T00:11:24.222Z,5.03
2017-02-26T00:12:34.551Z,5.1
2017-02-26T00:13:44.537Z,4.98
2017-02-26T00:14:54.859Z,5.04
2017-02-26T00:16:05.418Z,5
2017-02-26T00:17:15.733Z,5.08
2017-02-26T00:18:25.652Z,5.08
2017-02-26T00:19:36.030Z,5.06
2017-02-26T00:20:46.347Z,5.13
2017-02-26T00:21:56.913Z,5.1
2017-02-26T00:23:07.192Z,5.13
2017-02-26T00:24:17.482Z,5.11
2017-02-26T00:25:27.397Z,5.14
2017-02-26T00:26:37.272Z,5.03
2017-02-26T00:27:47.831Z,5.07
2017-02-26T00:28:58.118Z,5.07
2017-02-26T00:30:08.452Z,5.11
2017-02-26T00:31:18.776Z,5.07
2017-02-26T00:32:29.093Z,5.07
2017-02-26T00:33:38.846Z,5.07
2017-02-26T00:34:49.195Z,5.04
2017-02-26T00:35:58.678Z,5.11
2017-02-26T00:37:09.034Z,5.11
2017-02-26T00:38:18.899Z,5.04
2017-02-26T00:39:28.772Z,5.03
2017-02-26T00:40:38.270Z,5.07
2017-02-26T00:41:48.599Z,5.04
2017-02-26T00:42:58.512Z,5.03
2017-02-26T00:44:08.785Z,5.04
2017-02-26T00:45:19.440Z,4.99
2017-02-26T00:46:29.722Z,5.06
2017-02-26T00:47:39.630Z,5.04
2017-02-26T00:48:50.055Z,5.06
2017-02-26T00:50:00.470Z,5.04
2017-02-26T00:51:11.023Z,5.11
2017-02-26T00:52:21.359Z,5.03
2017-02-26T00:53:31.646Z,5.04
2017-02-26T00:54:41.662Z,5.06
2017-02-26T00:55:51.985Z,5.07
2017-02-26T00:57:01.735Z,5.08
2017-02-26T00:58:11.641Z,5.11
2017-02-26T00:59:21.920Z,5.1
2017-02-26T01:00:32.244Z,5.08
2017-02-26T01:01:42.575Z,5.1
2017-02-26T01:02:52.312Z,5.21
2017-02-26T01:04:02.704Z,5.18
2017-02-26T01:05:12.628Z,5.16
2017-02-26T01:06:22.518Z,5.11
2017-02-26T01:07:32.387Z,5.16
2017-02-26T01:08:42.954Z,5.13
2017-02-26T01:09:53.331Z,5.13
2017-02-26T01:11:03.619Z,5.17
2017-02-26T01:12:13.898Z,5.18
2017-02-26T01:13:24.189Z,5.21
2017-02-26T01:14:34.752Z,5.11
2017-02-26T01:15:45.053Z,5.22
2017-02-26T01:16:55.351Z,5.16
2017-02-26T01:18:05.646Z,5.21
2017-02-26T01:19:16.088Z,5.11
2017-02-26T01:20:26.221Z,5.14
2017-02-26T01:21:36.560Z,5.13
2017-02-26T01:22:46.847Z,5.14
2017-02-26T01:23:57.209Z,5.13
2017-02-26T01:25:07.522Z,5.18
2017-02-26T01:26:18.052Z,5.18
2017-02-26T01:27:27.936Z,5.16
2017-02-26T01:28:38.206Z,5.21
2017-02-26T01:29:48.076Z,5.14
2017-02-26T01:30:58.414Z,5.17
2017-02-26T01:32:08.575Z,5.14
2017-02-26T01:33:18.912Z,5.24
2017-02-26T01:34:28.432Z,5.18
2017-02-26T01:35:38.753Z,5.21
2017-02-26T01:36:49.012Z,5.16
2017-02-26T01:37:59.129Z,5.16
2017-02-26T01:39:09.607Z,5.22
2017-02-26T01:40:19.916Z,5.16
2017-02-26T01:41:29.771Z,5.21
2017-02-26T01:42:39.648Z,5.13
2017-02-26T01:43:49.767Z,5.18
2017-02-26T01:44:59.630Z,5.16
2017-02-26T01:46:09.608Z,5.17
2017-02-26T01:47:19.487Z,5.14
2017-02-26T01:48:29.366Z,5.07
2017-02-26T01:49:39.580Z,5.11
2017-02-26T01:50:49.110Z,5.11
2017-02-26T01:51:58.632Z,5.1
2017-02-26T01:53:07.784Z,5.14
2017-02-26T01:54:18.150Z,5.11
2017-02-26T01:55:28.740Z,5.08
2017-02-26T01:56:39.055Z,5.16
2017-02-26T01:57:49.038Z,5.08
2017-02-26T01:58:59.450Z,5.11
2017-02-26T02:00:09.776Z,5.06
2017-02-26T02:01:20.334Z,5.04
2017-02-26T02:02:30.687Z,5.04
2017-02-26T02:03:40.962Z,5.07
2017-02-26T02:04:51.242Z,5.04
2017-02-26T02:06:01.664Z,5.04
2017-02-26T02:07:11.449Z,5.03
2017-02-26T02:08:21.802Z,5.08
2017-02-26T02:09:32.067Z,5.1
2017-02-26T02:10:42.073Z,5.07
2017-02-26T02:11:52.044Z,5.07
2017-02-26T02:13:02.159Z,5.07
2017-02-26T02:14:12.091Z,5.04
2017-02-26T02:15:21.985Z,5.07
2017-02-26T02:16:31.925Z,5.1
2017-02-26T02:17:41.385Z,5.08
2017-02-26T02:18:51.557Z,5.06
2017-02-26T02:20:01.810Z,5.07
2017-02-26T02:21:11.800Z,4.98
2017-02-26T02:22:21.732Z,4.99
2017-02-26T02:23:31.205Z,5.03
2017-02-26T02:24:41.745Z,5.03
2017-02-26T02:25:52.047Z,5
2017-02-26T02:27:01.935Z,4.98
2017-02-26T02:28:12.196Z,5.06
2017-02-26T02:29:22.481Z,5.04
2017-02-26T02:30:32.649Z,5.06
2017-02-26T02:31:42.959Z,4.98
2017-02-26T02:32:52.883Z,5.04
2017-02-26T02:34:02.325Z,5
2017-02-26T02:35:12.714Z,5.06
2017-02-26T02:36:22.823Z,5.04
2017-02-26T02:37:32.681Z,5.04
2017-02-26T02:38:42.604Z,5
2017-02-26T02:39:52.938Z,5.04
2017-02-26T02:41:02.465Z,4.98
2017-02-26T02:42:12.983Z,5
2017-02-26T02:43:22.989Z,5.04
2017-02-26T02:44:33.300Z,5.04
2017-02-26T02:45:43.198Z,5.1
2017-02-26T02:46:53.573Z,5
2017-02-26T02:48:03.700Z,5.04
2017-02-26T02:49:13.176Z,5.03
2017-02-26T02:50:23.424Z,5.06
2017-02-26T02:51:33.876Z,4.96
2017-02-26T02:52:44.173Z,4.99
2017-02-26T02:53:54.373Z,5.04
2017-02-26T02:55:04.648Z,5.07
2017-02-26T02:56:14.551Z,5
2017-02-26T02:57:24.824Z,5.03
2017-02-26T02:58:34.312Z,5.04
2017-02-26T02:59:44.842Z,5.04
2017-02-26T03:00:55.159Z,4.98
2017-02-26T03:02:05.110Z,5.04
2017-02-26T03:03:15.373Z,4.99
2017-02-26T03:04:25.632Z,5
2017-02-26T03:05:36.166Z,4.93
2017-02-26T03:06:46.469Z,4.92
2017-02-26T03:07:56.750Z,4.95
2017-02-26T03:09:07.018Z,4.96
2017-02-26T03:10:17.309Z,4.96
2017-02-26T03:11:27.480Z,5.07
2017-02-26T03:12:37.762Z,5.03
2017-02-26T03:13:48.021Z,4.99
2017-02-26T03:14:58.034Z,4.96
2017-02-26T03:16:07.922Z,5.04
2017-02-26T03:17:18.556Z,5.03
2017-02-26T03:18:28.871Z,5
2017-02-26T03:19:39.186Z,4.99
2017-02-26T03:20:49.105Z,5.03
2017-02-26T03:21:59.376Z,5.07
2017-02-26T03:23:09.527Z,4.98
2017-02-26T03:24:19.399Z,5.04
2017-02-26T03:25:29.342Z,4.99
2017-02-26T03:26:39.288Z,5.04
2017-02-26T03:27:49.588Z,5.03
2017-02-26T03:29:00.114Z,5.03
2017-02-26T03:30:10.392Z,5.06
2017-02-26T03:31:20.659Z,5
2017-02-26T03:32:30.535Z,5
2017-02-26T03:33:40.402Z,4.98
2017-02-26T03:34:50.539Z,5
2017-02-26T03:36:00.410Z,5.04
2017-02-26T03:37:10.677Z,5.06
2017-02-26T03:38:20.608Z,5.03
2017-02-26T03:39:30.882Z,4.98
2017-02-26T03:40:41.244Z,5.03
2017-02-26T03:41:51.563Z,5.03
2017-02-26T03:43:01.432Z,5.04
2017-02-26T03:44:11.352Z,5.03
2017-02-26T03:45:21.230Z,4.99
2017-02-26T03:46:31.409Z,5.04
2017-02-26T03:47:41.278Z,4.99
2017-02-26T03:48:51.149Z,4.99
2017-02-26T03:50:01.488Z,4.92
2017-02-26T03:51:11.758Z,4.96
2017-02-26T03:52:22.307Z,4.93
2017-02-26T03:53:31.799Z,4.93
2017-02-26T03:54:41.255Z,4.93
2017-02-26T03:55:51.511Z,4.95
2017-02-26T03:57:01.833Z,4.92
2017-02-26T03:58:12.354Z,4.92
2017-02-26T03:59:22.643Z,4.93
2017-02-26T04:00:32.567Z,4.98
2017-02-26T04:01:42.441Z,4.77
2017-02-26T04:02:52.682Z,4.88
2017-02-26T04:04:03.185Z,4.92
2017-02-26T04:05:13.097Z,4.93
2017-02-26T04:06:23.486Z,4.89
2017-02-26T04:07:33.872Z,4.95
2017-02-26T04:08:43.724Z,4.92
2017-02-26T04:09:53.886Z,4.9
2017-02-26T04:11:04.213Z,4.93
2017-02-26T04:12:14.461Z,4.9
2017-02-26T04:13:24.334Z,4.98
2017-02-26T04:14:34.596Z,4.89
2017-02-26T04:15:45.152Z,4.92
2017-02-26T04:16:55.004Z,4.93
2017-02-26T04:18:05.265Z,4.98
2017-02-26T04:19:15.549Z,4.9
2017-02-26T04:20:25.029Z,4.96
2017-02-26T04:21:35.613Z,4.93
2017-02-26T04:22:45.471Z,4.98
2017-02-26T04:23:55.337Z,4.93
2017-02-26T04:25:05.637Z,4.95
2017-02-26T04:26:15.977Z,4.93
2017-02-26T04:27:26.596Z,4.86
2017-02-26T04:28:36.068Z,4.92
2017-02-26T04:29:46.383Z,4.95
2017-02-26T04:30:56.729Z,4.9
2017-02-26T04:32:06.985Z,4.9
2017-02-26T04:33:17.508Z,4.92
2017-02-26T04:34:27.803Z,4.93
2017-02-26T04:35:37.672Z,4.95
2017-02-26T04:36:48.238Z,4.93
2017-02-26T04:37:58.493Z,4.92
2017-02-26T04:39:08.223Z,4.96
2017-02-26T04:40:18.501Z,4.95
2017-02-26T04:41:28.365Z,5.03
2017-02-26T04:42:38.239Z,4.93
2017-02-26T04:43:47.785Z,5.04
2017-02-26T04:44:58.309Z,5.04
2017-02-26T04:46:08.661Z,5.04
2017-02-26T04:47:18.129Z,5.03
2017-02-26T04:48:28.478Z,5.04
2017-02-26T04:49:38.484Z,4.96
2017-02-26T04:50:49.047Z,4.99
2017-02-26T04:51:58.959Z,4.93
2017-02-26T04:53:08.839Z,5
2017-02-26T04:54:18.696Z,5
2017-02-26T04:55:28.993Z,4.98
2017-02-26T04:56:39.101Z,4.93
2017-02-26T04:57:49.377Z,4.93
2017-02-26T04:58:59.692Z,4.96
2017-02-26T05:00:10.026Z,4.95
2017-02-26T05:01:20.318Z,5.06
2017-02-26T05:02:30.942Z,5.03
2017-02-26T05:03:41.267Z,4.93
2017-02-26T05:04:51.569Z,4.93
2017-02-26T05:06:01.465Z,4.89
2017-02-26T05:07:11.740Z,4.92
2017-02-26T05:08:22.407Z,4.92
2017-02-26T05:09:32.353Z,4.93
2017-02-26T05:10:42.635Z,4.93
2017-02-26T05:11:52.893Z,4.86
2017-02-26T05:13:02.772Z,4.92
2017-02-26T05:14:13.413Z,4.98
2017-02-26T05:15:23.753Z,4.92
2017-02-26T05:16:33.609Z,4.83
2017-02-26T05:17:43.907Z,4.92
2017-02-26T05:18:53.846Z,4.93
2017-02-26T05:20:03.970Z,4.98
2017-02-26T05:21:13.458Z,4.92
2017-02-26T05:22:23.326Z,4.85
2017-02-26T05:23:33.200Z,4.89
2017-02-26T05:24:43.531Z,4.89
2017-02-26T05:25:53.637Z,4.92
2017-02-26T05:27:03.897Z,4.93
2017-02-26T05:28:13.810Z,4.98
2017-02-26T05:29:24.077Z,4.92
2017-02-26T05:30:34.499Z,4.95
2017-02-26T05:31:44.656Z,4.95
2017-02-26T05:32:54.792Z,4.93
2017-02-26T05:34:05.178Z,4.95
2017-02-26T05:35:15.530Z,4.92
2017-02-26T05:36:25.937Z,4.93
2017-02-26T05:37:36.456Z,4.95
2017-02-26T05:38:46.391Z,4.96
2017-02-26T05:39:56.316Z,4.9
2017-02-26T05:41:06.267Z,4.99
2017-02-26T05:42:16.295Z,4.96
2017-02-26T05:43:26.832Z,4.93
2017-02-26T05:44:36.725Z,4.96
2017-02-26T05:45:47.024Z,5.04
2017-02-26T05:46:56.882Z,4.96
2017-02-26T05:48:07.182Z,4.93
2017-02-26T05:49:17.278Z,4.95
2017-02-26T05:50:27.187Z,4.93
2017-02-26T05:51:37.482Z,4.98
2017-02-26T05:52:47.761Z,4.93
2017-02-26T05:53:57.639Z,4.99
2017-02-26T05:55:08.463Z,5.03
2017-02-26T05:56:18.353Z,4.99
2017-02-26T05:57:28.651Z,4.96
2017-02-26T05:59:10.287Z,4.95
2017-02-26T06:00:20.798Z,4.96
2017-02-26T06:01:30.831Z,4.93
2017-02-26T06:02:41.121Z,4.93
2017-02-26T06:03:51.407Z,4.93
2017-02-26T06:05:01.686Z,4.92
2017-02-26T06:06:12.001Z,4.95
2017-02-26T06:07:22.280Z,4.88
2017-02-26T06:08:32.566Z,4.89
2017-02-26T06:09:42.926Z,4.93
2017-02-26T06:10:52.832Z,4.78
2017-02-26T06:12:02.543Z,4.83
2017-02-26T06:13:12.921Z,4.98
2017-02-26T06:14:22.798Z,4.83
2017-02-26T06:15:33.098Z,4.89
2017-02-26T06:16:43.469Z,4.93
2017-02-26T06:17:54.257Z,4.9
2017-02-26T06:19:04.533Z,4.92
2017-02-26T06:20:14.095Z,4.9
2017-02-26T06:21:24.377Z,4.98
2017-02-26T06:22:34.661Z,4.93
2017-02-26T06:23:45.201Z,4.89
2017-02-26T06:24:55.546Z,4.95
2017-02-26T06:26:05.839Z,4.93
2017-02-26T06:27:15.733Z,4.95
2017-02-26T06:28:25.233Z,4.95
2017-02-26T06:29:34.918Z,4.89
2017-02-26T06:30:44.845Z,4.93
2017-02-26T06:31:55.137Z,4.92
2017-02-26T06:33:04.610Z,4.95
2017-02-26T06:34:14.072Z,4.95
2017-02-26T06:35:24.694Z,4.92
2017-02-26T06:36:34.990Z,4.93
2017-02-26T06:37:45.314Z,4.99
2017-02-26T06:38:55.630Z,4.92
2017-02-26T06:40:05.915Z,4.95
2017-02-26T06:41:16.126Z,4.88
2017-02-26T06:42:26.414Z,4.92
2017-02-26T06:43:36.691Z,4.89
2017-02-26T06:44:46.622Z,4.98
2017-02-26T06:45:57.033Z,4.98
2017-02-26T06:47:07.243Z,4.88
2017-02-26T06:48:17.500Z,4.92
2017-02-26T06:49:27.496Z,4.93
2017-02-26T06:50:37.412Z,4.93
2017-02-26T06:51:47.353Z,4.89
2017-02-26T06:52:57.606Z,4.95
2017-02-26T06:54:07.947Z,4.93
2017-02-26T06:55:18.246Z,4.93
2017-02-26T06:56:27.710Z,4.96
2017-02-26T06:57:37.573Z,4.93
2017-02-26T06:58:47.704Z,4.93
2017-02-26T06:59:58.023Z,4.92
2017-02-26T07:01:08.333Z,4.93
2017-02-26T07:02:18.616Z,4.92
2017-02-26T07:03:28.646Z,4.93
2017-02-26T07:04:38.819Z,4.92
2017-02-26T07:05:49.168Z,4.98
2017-02-26T07:06:59.441Z,5
2017-02-26T07:08:09.598Z,4.96
2017-02-26T07:09:19.076Z,4.96
2017-02-26T07:10:29.633Z,4.96
2017-02-26T07:11:39.897Z,4.92
2017-02-26T07:12:50.191Z,4.98
2017-02-26T07:14:00.478Z,4.99
2017-02-26T07:15:10.751Z,4.95
2017-02-26T07:16:21.284Z,4.96
2017-02-26T07:17:31.153Z,4.93
2017-02-26T07:18:40.629Z,4.95
2017-02-26T07:19:50.915Z,4.9
2017-02-26T07:21:00.652Z,4.95
2017-02-26T07:22:11.380Z,4.92
2017-02-26T07:23:21.253Z,4.93
2017-02-26T07:24:31.512Z,4.96
2017-02-26T07:25:41.391Z,4.99
2017-02-26T07:26:51.403Z,5
2017-02-26T07:28:01.550Z,5
2017-02-26T07:29:11.003Z,5.06
2017-02-26T07:30:21.301Z,5.03
2017-02-26T07:31:31.618Z,5.07
2017-02-26T07:32:41.930Z,5.07
2017-02-26T07:33:52.532Z,5.18
2017-02-26T07:35:02.958Z,5.17
2017-02-26T07:36:13.289Z,5.26
2017-02-26T07:37:23.564Z,5.22
2017-02-26T07:38:33.848Z,5.21
2017-02-26T07:40:16.158Z,5.29
2017-02-26T07:41:26.600Z,5.21
2017-02-26T07:42:36.868Z,5.16
2017-02-26T07:43:47.163Z,5.22
2017-02-26T07:44:57.973Z,5.16
2017-02-26T07:46:08.336Z,5.18
2017-02-26T07:47:18.638Z,5.21
2017-02-26T07:48:28.538Z,5.29
2017-02-26T07:49:38.805Z,5.29
2017-02-26T07:50:48.914Z,5.24
2017-02-26T07:51:59.265Z,5.18
2017-02-26T07:53:09.560Z,5.24
2017-02-26T07:54:19.832Z,5.16
2017-02-26T07:55:29.348Z,5.22
2017-02-26T07:56:39.956Z,5.31
2017-02-26T07:57:50.403Z,5.31
2017-02-26T07:58:59.877Z,5.18
2017-02-26T08:00:09.941Z,5.17
2017-02-26T08:01:20.243Z,5.24
2017-02-26T08:02:30.773Z,5.29
2017-02-26T08:03:40.663Z,5.21
2017-02-26T08:04:50.571Z,5.31
2017-02-26T08:06:00.897Z,5.26
2017-02-26T08:07:11.181Z,5.24
2017-02-26T08:08:21.778Z,5.31
2017-02-26T08:09:32.045Z,5.22
2017-02-26T08:10:41.959Z,5.25
2017-02-26T08:11:51.832Z,5.29
2017-02-26T08:13:01.717Z,5.22
2017-02-26T08:14:12.264Z,5.18
2017-02-26T08:15:22.155Z,5.18
2017-02-26T08:16:32.119Z,5.21
2017-02-26T08:17:42.423Z,5.25
2017-02-26T08:18:52.713Z,5.24
2017-02-26T08:20:02.942Z,5.28
2017-02-26T08:21:13.386Z,5.35
2017-02-26T08:22:23.694Z,5.29
2017-02-26T08:23:33.179Z,5.33
2017-02-26T08:24:43.087Z,5.29
2017-02-26T08:25:53.633Z,5.44
2017-02-26T08:27:04.001Z,5.46
2017-02-26T08:28:14.378Z,5.5
2017-02-26T08:29:24.311Z,5.47
2017-02-26T08:30:34.586Z,5.53
2017-02-26T08:31:44.764Z,5.51
2017-02-26T08:32:55.089Z,5.56
2017-02-26T08:34:04.949Z,5.59
2017-02-26T08:35:15.250Z,5.58
2017-02-26T08:36:25.577Z,5.67
2017-02-26T08:37:36.114Z,5.68
2017-02-26T08:38:46.001Z,5.68
2017-02-26T08:39:55.909Z,5.82
2017-02-26T08:41:06.238Z,5.88
2017-02-26T08:42:16.109Z,5.82
2017-02-26T08:43:26.719Z,5.93
2017-02-26T08:44:36.980Z,5.79
2017-02-26T08:45:47.313Z,5.88
2017-02-26T08:46:57.201Z,5.91
2017-02-26T08:48:07.466Z,5.91
2017-02-26T08:49:18.056Z,5.93
2017-02-26T08:50:27.975Z,5.88
2017-02-26T08:51:38.244Z,5.86
2017-02-26T08:52:48.576Z,6.01
2017-02-26T08:53:58.846Z,5.99
2017-02-26T08:55:09.369Z,6.05
2017-02-26T08:56:19.704Z,6.08
2017-02-26T08:57:30.012Z,6.08
2017-02-26T08:58:40.316Z,6.12
2017-02-26T08:59:50.628Z,6.16
2017-02-26T09:01:01.315Z,6.31
2017-02-26T09:02:10.817Z,6.41
2017-02-26T09:03:20.708Z,6.57
2017-02-26T09:04:31.054Z,6.67
2017-02-26T09:05:41.334Z,6.87
2017-02-26T09:06:51.964Z,6.95
2017-02-26T09:08:02.364Z,7.08
2017-02-26T09:09:12.760Z,7.22
2017-02-26T09:10:22.668Z,7.33
2017-02-26T09:11:33.023Z,7.29
2017-02-26T09:12:43.169Z,7.36
2017-02-26T09:13:53.469Z,7.24
2017-02-26T09:15:03.773Z,7.34
2017-02-26T09:16:14.051Z,7.24
2017-02-26T09:17:24.459Z,7.22
2017-02-26T09:18:35.036Z,7.17
2017-02-26T09:19:45.327Z,7.13
2017-02-26T09:20:55.221Z,7.05
2017-02-26T09:22:05.125Z,6.93
2017-02-26T09:23:15.584Z,6.85
2017-02-26T09:24:25.776Z,6.82
2017-02-26T09:25:35.315Z,6.74
2017-02-26T09:26:45.719Z,6.81
2017-02-26T09:27:56.077Z,6.78
2017-02-26T09:29:06.369Z,6.78
2017-02-26T09:30:16.568Z,6.82
2017-02-26T09:31:26.892Z,6.81
2017-02-26T09:32:37.222Z,6.85
2017-02-26T09:33:47.272Z,6.77
2017-02-26T09:34:57.604Z,6.74
2017-02-26T09:36:08.169Z,6.82
2017-02-26T09:37:18.525Z,6.77
2017-02-26T09:38:28.833Z,6.67
2017-02-26T09:39:39.264Z,6.59
2017-02-26T09:40:49.555Z,6.71
2017-02-26T09:42:00.089Z,6.75
2017-02-26T09:43:09.972Z,6.74
2017-02-26T09:44:20.290Z,6.64
2017-02-26T09:45:30.198Z,6.69
2017-02-26T09:46:40.524Z,6.59
2017-02-26T09:47:50.664Z,6.72
2017-02-26T09:49:00.959Z,6.75
2017-02-26T09:50:11.276Z,6.75
2017-02-26T09:51:21.168Z,6.78
2017-02-26T09:52:31.487Z,6.78
2017-02-26T09:53:42.042Z,6.97
2017-02-26T09:54:51.533Z,6.96
2017-02-26T09:56:01.412Z,6.97
2017-02-26T09:57:11.781Z,7.15
2017-02-26T09:58:22.076Z,7.15
2017-02-26T09:59:32.586Z,7.2
2017-02-26T10:00:42.467Z,7.2
2017-02-26T10:01:52.654Z,7.2
2017-02-26T10:03:02.718Z,7.18
2017-02-26T10:04:13.485Z,7.17
2017-02-26T10:05:23.712Z,7.17
2017-02-26T10:06:33.264Z,7.17
2017-02-26T10:07:43.611Z,7.2
2017-02-26T10:08:53.515Z,7.15
2017-02-26T10:10:03.804Z,7.13
2017-02-26T10:11:13.980Z,7.2
2017-02-26T10:12:24.297Z,7.18
2017-02-26T10:13:34.648Z,7.14
2017-02-26T10:14:44.574Z,7.11
2017-02-26T10:15:54.893Z,7.11
2017-02-26T10:17:05.462Z,7.11
2017-02-26T10:18:15.814Z,7.13
2017-02-26T10:19:26.100Z,7.15
2017-02-26T10:20:35.574Z,7.1
2017-02-26T10:21:45.477Z,7
2017-02-26T10:22:55.720Z,7.13
2017-02-26T10:24:05.742Z,7.14
2017-02-26T10:25:15.253Z,7.15
2017-02-26T10:26:25.587Z,7.14
2017-02-26T10:27:35.914Z,7.15
2017-02-26T10:28:46.462Z,7.17
2017-02-26T10:29:56.807Z,7.13
2017-02-26T10:31:06.699Z,7.13
2017-02-26T10:32:17.064Z,7.14
2017-02-26T10:33:26.555Z,7.17
2017-02-26T10:34:37.163Z,7.1
2017-02-26T10:35:47.281Z,7.22
2017-02-26T10:36:57.710Z,7.06
2017-02-26T10:38:08.145Z,7.11
2017-02-26T10:39:18.468Z,7.2
2017-02-26T10:40:29.089Z,7.29
2017-02-26T10:41:39.096Z,7.31
2017-02-26T10:42:49.091Z,7.36
2017-02-26T10:43:59.453Z,7.29
2017-02-26T10:45:09.396Z,7.43
2017-02-26T10:46:19.969Z,7.44
2017-02-26T10:47:30.682Z,7.52
2017-02-26T10:48:41.070Z,7.61
2017-02-26T10:49:51.542Z,7.64
2017-02-26T10:51:01.972Z,7.7
2017-02-26T10:52:12.552Z,7.79
2017-02-26T10:53:22.476Z,7.84
2017-02-26T10:54:32.951Z,7.8
2017-02-26T10:55:43.276Z,7.98
2017-02-26T10:56:52.811Z,7.94
2017-02-26T10:58:02.965Z,7.88
2017-02-26T10:59:12.899Z,7.95
2017-02-26T11:00:23.272Z,7.9
2017-02-26T11:01:33.629Z,7.92
2017-02-26T11:02:43.531Z,7.94
2017-02-26T11:03:54.155Z,7.88
2017-02-26T11:05:04.072Z,7.88
2017-02-26T11:06:13.990Z,7.94
2017-02-26T11:07:24.312Z,7.98
2017-02-26T11:08:34.260Z,7.98
2017-02-26T11:09:44.836Z,8.03
2017-02-26T11:10:57.598Z,8.06
2017-02-26T11:12:14.287Z,7.97
2017-02-26T11:13:27.714Z,8.13
2017-02-26T11:14:40.749Z,8.15
2017-02-26T11:15:53.591Z,8.28
2017-02-26T11:17:06.279Z,8.46
2017-02-26T11:18:19.724Z,8.5
2017-02-26T11:19:32.222Z,8.61
2017-02-26T11:20:45.736Z,8.75
2017-02-26T11:21:56.876Z,8.87
2017-02-26T11:23:06.793Z,8.92
2017-02-26T11:24:17.159Z,8.97
2017-02-26T11:25:27.177Z,8.93
2017-02-26T11:26:37.835Z,9.01
2017-02-26T11:27:48.168Z,9.07
2017-02-26T11:28:58.524Z,9.08
2017-02-26T11:30:08.995Z,9.07
2017-02-26T11:31:19.347Z,9.02
2017-02-26T11:32:29.532Z,8.98
2017-02-26T11:33:39.855Z,8.92
2017-02-26T11:34:48.978Z,8.84
2017-02-26T11:35:58.881Z,8.84
2017-02-26T11:37:09.366Z,8.74
2017-02-26T11:38:20.212Z,8.67
2017-02-26T11:39:30.117Z,8.63
2017-02-26T11:40:40.714Z,8.6
2017-02-26T11:41:51.013Z,8.57
2017-02-26T11:43:01.320Z,8.53
2017-02-26T11:44:11.660Z,8.58
2017-02-26T11:45:21.891Z,8.57
2017-02-26T11:46:32.351Z,8.66
2017-02-26T11:47:42.664Z,8.75
2017-02-26T11:48:52.604Z,8.74
2017-02-26T11:50:02.866Z,8.86
2017-02-26T11:51:13.256Z,8.8
2017-02-26T11:52:23.629Z,8.89
2017-02-26T11:53:33.913Z,8.98
2017-02-26T11:54:43.820Z,8.97
2017-02-26T11:55:54.396Z,9.11
2017-02-26T11:57:04.796Z,9.25
2017-02-26T11:58:14.760Z,9.38
2017-02-26T11:59:25.104Z,9.53
2017-02-26T12:00:35.079Z,9.75
2017-02-26T12:01:45.646Z,9.83
2017-02-26T12:02:55.629Z,9.96
2017-02-26T12:04:05.671Z,10.05
2017-02-26T12:05:16.045Z,10.11
2017-02-26T12:06:26.731Z,10.3
2017-02-26T12:07:37.568Z,10.34
2017-02-26T12:08:47.887Z,10.48
2017-02-26T12:09:58.178Z,10.58
2017-02-26T12:11:08.043Z,10.83
2017-02-26T12:12:17.953Z,11.06
2017-02-26T12:13:27.677Z,11.21
2017-02-26T12:14:37.554Z,11.28
2017-02-26T12:15:47.458Z,11.4
2017-02-26T12:16:57.775Z,11.42
2017-02-26T12:18:08.081Z,11.65
2017-02-26T12:19:18.747Z,11.71
2017-02-26T12:20:29.201Z,11.74
2017-02-26T12:22:11.278Z,12.04
2017-02-26T12:23:21.622Z,12.16
2017-02-26T12:24:31.766Z,12.34
2017-02-26T12:25:42.144Z,12.24
2017-02-26T12:26:52.455Z,12.26
2017-02-26T12:28:02.372Z,12.16
2017-02-26T12:29:12.764Z,12.04
2017-02-26T12:30:23.389Z,12.04
2017-02-26T12:31:32.890Z,11.68
2017-02-26T12:32:43.237Z,11.4
2017-02-26T12:33:53.623Z,11.13
2017-02-26T12:35:03.999Z,11.08
2017-02-26T12:36:14.599Z,10.72
2017-02-26T12:37:24.540Z,10.58
2017-02-26T12:38:34.857Z,10.51
2017-02-26T12:39:44.846Z,10.27
2017-02-26T12:40:55.160Z,10.33
2017-02-26T12:42:05.339Z,10.15
2017-02-26T12:43:15.794Z,10.02
2017-02-26T12:44:25.307Z,9.99
2017-02-26T12:45:35.261Z,9.91
2017-02-26T12:46:45.156Z,9.78
2017-02-26T12:47:55.300Z,9.66
2017-02-26T12:49:04.493Z,9.62
2017-02-26T12:50:14.785Z,9.53
2017-02-26T12:51:25.066Z,9.48
2017-02-26T12:52:35.530Z,9.56
2017-02-26T12:53:46.210Z,9.53
2017-02-26T12:54:56.870Z,9.58
2017-02-26T12:56:07.235Z,9.59
2017-02-26T12:57:17.153Z,9.53
2017-02-26T12:58:27.490Z,9.53
2017-02-26T12:59:38.148Z,9.48
2017-02-26T13:00:48.568Z,9.48
2017-02-26T13:01:58.942Z,9.5
2017-02-26T13:03:09.310Z,9.52
2017-02-26T13:04:19.645Z,9.59
2017-02-26T13:05:30.196Z,9.65
2017-02-26T13:06:40.484Z,9.65
2017-02-26T13:07:50.822Z,9.78
2017-02-26T13:09:00.809Z,9.81
2017-02-26T13:10:11.266Z,9.83
2017-02-26T13:11:21.940Z,9.88
2017-02-26T13:12:32.248Z,9.84
2017-02-26T13:13:42.653Z,9.96
2017-02-26T13:14:52.975Z,9.96
2017-02-26T13:16:03.074Z,10.08
2017-02-26T13:17:13.631Z,10.19
2017-02-26T13:18:24.071Z,10.18
2017-02-26T13:19:34.378Z,10.17
2017-02-26T13:20:44.784Z,10.32
2017-02-26T13:21:55.104Z,10.3
2017-02-26T13:23:05.887Z,10.29
2017-02-26T13:24:16.264Z,10.32
2017-02-26T13:25:26.600Z,10.3
2017-02-26T13:26:36.998Z,10.32
2017-02-26T13:27:47.326Z,10.42
2017-02-26T13:28:58.230Z,10.21
2017-02-26T13:30:08.547Z,10.24
2017-02-26T13:31:18.917Z,10.3
2017-02-26T13:32:29.248Z,10.39
2017-02-26T13:33:39.671Z,10.37
2017-02-26T13:34:49.819Z,10.4
2017-02-26T13:36:00.140Z,10.39
2017-02-26T13:37:10.505Z,10.37
2017-02-26T13:38:20.813Z,10.19
2017-02-26T13:39:30.709Z,10.34
2017-02-26T13:40:41.305Z,10.34
2017-02-26T13:41:51.646Z,10.26
2017-02-26T13:43:01.746Z,10.3
2017-02-26T13:44:11.701Z,10.34
2017-02-26T13:45:22.110Z,10.42
2017-02-26T13:46:32.458Z,10.45
2017-02-26T13:47:42.808Z,10.39
2017-02-26T13:48:52.737Z,10.48
2017-02-26T13:50:03.076Z,10.47
2017-02-26T13:51:13.384Z,10.48
2017-02-26T13:52:24.009Z,10.34
2017-02-26T13:53:34.401Z,10.4
2017-02-26T13:54:44.825Z,10.33
2017-02-26T13:55:55.144Z,10.32
2017-02-26T13:57:05.821Z,10.27
2017-02-26T13:58:16.398Z,10.29
2017-02-26T13:59:26.744Z,10.19
2017-02-26T14:00:37.101Z,10.13
2017-02-26T14:01:47.401Z,10.18
2017-02-26T14:02:57.829Z,10.15
2017-02-26T14:04:08.407Z,10.11
2017-02-26T14:05:18.799Z,10.08
2017-02-26T14:06:29.163Z,10.18
2017-02-26T14:07:39.506Z,10.13
2017-02-26T14:08:49.845Z,10.11
2017-02-26T14:10:00.431Z,10.11
2017-02-26T14:11:10.365Z,10.08
2017-02-26T14:12:20.763Z,10.02
2017-02-26T14:13:30.665Z,10
2017-02-26T14:14:40.958Z,9.96
2017-02-26T14:15:51.530Z,10
2017-02-26T14:17:01.470Z,9.99
2017-02-26T14:18:11.429Z,10.02
2017-02-26T14:19:21.323Z,9.99
2017-02-26T14:20:31.309Z,9.88
2017-02-26T14:21:41.913Z,10
2017-02-26T14:22:52.264Z,9.83
2017-02-26T14:24:02.148Z,9.98
2017-02-26T14:25:12.500Z,9.98
2017-02-26T14:26:22.474Z,10.07
2017-02-26T14:27:33.030Z,10.05
2017-02-26T14:28:42.926Z,10.13
2017-02-26T14:29:52.888Z,10.11
2017-02-26T14:31:03.205Z,10.29
2017-02-26T14:32:13.565Z,10.37
2017-02-26T14:33:24.188Z,10.45
2017-02-26T14:34:34.489Z,10.57
2017-02-26T14:35:44.038Z,10.54
2017-02-26T14:36:54.418Z,10.63
2017-02-26T14:38:04.413Z,10.69
2017-02-26T14:39:15.013Z,10.72
2017-02-26T14:40:25.438Z,10.87
2017-02-26T14:41:35.798Z,10.79
2017-02-26T14:42:46.183Z,10.84
2017-02-26T14:43:56.531Z,10.94
2017-02-26T14:45:07.099Z,10.91
2017-02-26T14:46:17.424Z,10.91
2017-02-26T14:47:27.406Z,10.84
2017-02-26T14:48:37.378Z,10.87
2017-02-26T14:49:47.728Z,10.83
2017-02-26T14:50:58.456Z,10.79
2017-02-26T14:52:08.979Z,10.76
2017-02-26T14:53:18.892Z,10.66
2017-02-26T14:54:29.278Z,10.72
2017-02-26T14:55:38.790Z,10.69
2017-02-26T14:56:49.381Z,10.66
2017-02-26T14:57:59.722Z,10.58
2017-02-26T14:59:09.641Z,10.58
2017-02-26T15:00:19.971Z,10.55
2017-02-26T15:01:30.353Z,10.5
2017-02-26T15:02:40.999Z,10.5
2017-02-26T15:03:50.944Z,10.37
2017-02-26T15:05:01.361Z,10.4
2017-02-26T15:06:11.778Z,10.3
2017-02-26T15:07:22.126Z,10.32
2017-02-26T15:08:32.852Z,10.3
2017-02-26T15:09:43.174Z,10.32
2017-02-26T15:10:53.735Z,10.18
2017-02-26T15:12:03.679Z,10.32
2017-02-26T15:13:13.618Z,10.24
2017-02-26T15:14:24.217Z,10.22
2017-02-26T15:15:34.612Z,10.11
2017-02-26T15:16:44.529Z,10.11
2017-02-26T15:17:54.508Z,10.24
2017-02-26T15:19:04.934Z,10.11
2017-02-26T15:20:15.160Z,10.18
2017-02-26T15:21:25.481Z,10.07
2017-02-26T15:22:35.809Z,10.18
2017-02-26T15:23:46.141Z,10.19
2017-02-26T15:24:56.497Z,10.19
2017-02-26T15:26:07.074Z,10.13
2017-02-26T15:27:17.399Z,10.17
2017-02-26T15:28:27.744Z,10.1
2017-02-26T15:29:37.240Z,10.15
2017-02-26T15:30:47.567Z,10.11
2017-02-26T15:31:58.175Z,10.1
2017-02-26T15:33:08.485Z,10.11
2017-02-26T15:34:18.833Z,10.11
2017-02-26T15:35:28.741Z,10